Medical Lake, WA (99022)

6:49 AM PST on January 25, 2015 (GMT -0800)
In town | Change Station
CLOSE
Current Station
Personal Weather Station
Location: Medical Lake, WA
Elevation: 2421 ft
Nearby Weather Stations

Elev 2421 ft 47.58 °N, 117.69 °W | Updated 3 minutes ago

Overcast
Overcast
42.4 °F
Feels Like 42 °F
N
2.7
Wind Variable Wind from East

Today
High -- | Low -- °F
--% Chance of Precip.
Yesterday
High -- | Low -- °F
Precip. -- in
7:25 AM 4:41 PM
Waxing Crescent, 33% visible
Pressure 30.22 in
Visibility 3.0 miles
Clouds Overcast 200 ft
Windchill 42 °F
Dew Point 42 °F
Humidity 99%
Rainfall 0.00 in
Snow Depth Not available.
UV 0 out of 12
Pollen .90 out of 12
Air Quality Not available.
Flu Activity Not available.
SPECI KSKA 251440Z 18003KT 3SM BR OVC002 06/06 A3022 RMK AO2A TWR VIS 1/4 VIS 1 1/4 RWY05

More Conditions Fewer Conditions

Pressure 30.22 in
Visibility 3.0 miles
Clouds Overcast 200 ft
Windchill 42 °F
Dew Point 42 °F
Humidity 99%
Rainfall 0.00 in
Snow Depth Not available.
UV 0 out of 12
Pollen .90 out of 12
Air Quality Not available.
Flu Activity Not available.
SPECI KSKA 251440Z 18003KT 3SM BR OVC002 06/06 A3022 RMK AO2A TWR VIS 1/4 VIS 1 1/4 RWY05

More Conditions Fewer Conditions

10-Day Weather Forecast

Almanac

Astronomy

Jan. 25, 2015 Rise Set
Actual Time
Civil Twilight
Nautical Twilight
Astronomical Twilight
Moon
Length of Visible Light
Length of Day
Tomorrow will be .
, % of the Moon is Illuminated

Today's Extremes

State Highs State Lows

Community

WunderPhotos

Upload Photos

1,789,899 photos uploaded!

WunderBlogs® & News

Nearby

Air Quality

  Air Quality AQ Index Pollutant
Not available.

Snow Depth

Station Depth Elevation

Earthquake Activity

City Distance Mag. Time & Date
Minimum magnitude displayed is 2.5.

Coastal Water Temperatures

Place Temperature

Nearby Weather Stations